sensor_id;sensor_type;location;lat;lon;timestamp;P1;durP1;ratioP1;P2;durP2;ratioP2
16665;SDS011;8446;50.998;6.250;2022-12-13T10:07:32;26.10;;;12.82;;
16665;SDS011;8446;50.998;6.250;2022-12-13T10:09:59;25.73;;;10.77;;
16665;SDS011;8446;50.998;6.250;2022-12-13T10:12:27;23.45;;;11.75;;
16665;SDS011;8446;50.998;6.250;2022-12-13T10:14:56;22.20;;;11.68;;
16665;SDS011;8446;50.998;6.250;2022-12-13T10:17:24;23.70;;;11.57;;
16665;SDS011;8446;50.998;6.250;2022-12-13T10:19:52;24.17;;;11.38;;
16665;SDS011;8446;50.998;6.250;2022-12-13T10:22:20;31.33;;;10.82;;
16665;SDS011;8446;50.998;6.250;2022-12-13T10:24:50;27.08;;;11.10;;
16665;SDS011;8446;50.998;6.250;2022-12-13T10:27:18;23.40;;;11.32;;
16665;SDS011;8446;50.998;6.250;2022-12-13T10:29:56;20.40;;;11.35;;
16665;SDS011;8446;50.998;6.250;2022-12-13T10:32:23;22.92;;;11.43;;
16665;SDS011;8446;50.998;6.250;2022-12-13T10:34:50;23.23;;;10.18;;
16665;SDS011;8446;50.998;6.250;2022-12-13T10:37:23;21.38;;;11.52;;
16665;SDS011;8446;50.998;6.250;2022-12-13T10:39:54;24.73;;;10.43;;
16665;SDS011;8446;50.998;6.250;2022-12-13T10:42:21;29.65;;;11.70;;
16665;SDS011;8446;50.998;6.250;2022-12-13T10:44:48;30.73;;;13.40;;
16665;SDS011;8446;50.998;6.250;2022-12-13T10:47:16;21.45;;;12.07;;
16665;SDS011;8446;50.998;6.250;2022-12-13T10:49:48;23.42;;;11.50;;
16665;SDS011;8446;50.998;6.250;2022-12-13T10:52:21;23.73;;;10.98;;
16665;SDS011;8446;50.998;6.250;2022-12-13T10:54:50;18.42;;;10.02;;
16665;SDS011;8446;50.998;6.250;2022-12-13T10:57:18;23.63;;;11.05;;
16665;SDS011;8446;50.998;6.250;2022-12-13T10:59:46;24.08;;;12.05;;
16665;SDS011;8446;50.998;6.250;2022-12-13T11:02:30;20.42;;;11.60;;
16665;SDS011;8446;50.998;6.250;2022-12-13T11:04:58;20.83;;;11.52;;
16665;SDS011;8446;50.998;6.250;2022-12-13T11:07:26;19.83;;;11.25;;
16665;SDS011;8446;50.998;6.250;2022-12-13T11:09:54;19.38;;;10.77;;
16665;SDS011;8446;50.998;6.250;2022-12-13T11:12:23;18.05;;;10.75;;
16665;SDS011;8446;50.998;6.250;2022-12-13T11:14:52;19.90;;;10.18;;
16665;SDS011;8446;50.998;6.250;2022-12-13T11:17:20;18.30;;;10.25;;
16665;SDS011;8446;50.998;6.250;2022-12-13T11:19:49;20.52;;;10.25;;
16665;SDS011;8446;50.998;6.250;2022-12-13T11:22:18;21.30;;;10.60;;
16665;SDS011;8446;50.998;6.250;2022-12-13T11:24:48;20.98;;;11.60;;
16665;SDS011;8446;50.998;6.250;2022-12-13T11:27:24;20.60;;;11.20;;
16665;SDS011;8446;50.998;6.250;2022-12-13T11:30:00;18.20;;;10.18;;
16665;SDS011;8446;50.998;6.250;2022-12-13T11:32:32;20.52;;;11.15;;
16665;SDS011;8446;50.998;6.250;2022-12-13T11:35:04;24.95;;;10.63;;
16665;SDS011;8446;50.998;6.250;2022-12-13T11:37:37;24.63;;;11.70;;
16665;SDS011;8446;50.998;6.250;2022-12-13T11:40:09;24.73;;;10.23;;
16665;SDS011;8446;50.998;6.250;2022-12-13T11:42:40;20.20;;;11.23;;
16665;SDS011;8446;50.998;6.250;2022-12-13T11:45:10;21.77;;;11.10;;
16665;SDS011;8446;50.998;6.250;2022-12-13T11:47:41;21.35;;;9.82;;
16665;SDS011;8446;50.998;6.250;2022-12-13T11:50:13;21.67;;;11.27;;
16665;SDS011;8446;50.998;6.250;2022-12-13T11:52:43;24.20;;;11.50;;
16665;SDS011;8446;50.998;6.250;2022-12-13T11:55:13;20.00;;;10.70;;
16665;SDS011;8446;50.998;6.250;2022-12-13T11:57:45;20.02;;;10.07;;
16665;SDS011;8446;50.998;6.250;2022-12-13T12:00:20;19.60;;;10.00;;
16665;SDS011;8446;50.998;6.250;2022-12-13T12:02:52;18.23;;;10.20;;
16665;SDS011;8446;50.998;6.250;2022-12-13T12:05:26;20.13;;;10.40;;
16665;SDS011;8446;50.998;6.250;2022-12-13T12:07:54;27.55;;;10.38;;
16665;SDS011;8446;50.998;6.250;2022-12-13T12:10:25;20.33;;;10.32;;
16665;SDS011;8446;50.998;6.250;2022-12-13T12:12:55;20.40;;;10.55;;
16665;SDS011;8446;50.998;6.250;2022-12-13T12:15:25;21.65;;;9.73;;
16665;SDS011;8446;50.998;6.250;2022-12-13T12:17:54;23.55;;;10.60;;
16665;SDS011;8446;50.998;6.250;2022-12-13T12:20:24;23.25;;;10.32;;
16665;SDS011;8446;50.998;6.250;2022-12-13T12:22:56;21.00;;;9.85;;
16665;SDS011;8446;50.998;6.250;2022-12-13T12:25:28;18.63;;;9.55;;
16665;SDS011;8446;50.998;6.250;2022-12-13T12:28:03;21.83;;;11.13;;
16665;SDS011;8446;50.998;6.250;2022-12-13T12:30:33;21.73;;;10.65;;
16665;SDS011;8446;50.998;6.250;2022-12-13T12:33:05;20.50;;;9.50;;
16665;SDS011;8446;50.998;6.250;2022-12-13T12:38:27;22.80;;;10.77;;
16665;SDS011;8446;50.998;6.250;2022-12-13T12:41:08;18.98;;;10.35;;
16665;SDS011;8446;50.998;6.250;2022-12-13T12:43:40;22.65;;;10.48;;
16665;SDS011;8446;50.998;6.250;2022-12-13T12:46:13;17.10;;;8.23;;
16665;SDS011;8446;50.998;6.250;2022-12-13T12:49:07;21.65;;;10.80;;
16665;SDS011;8446;50.998;6.250;2022-12-13T12:51:40;19.75;;;9.13;;
16665;SDS011;8446;50.998;6.250;2022-12-13T12:54:14;19.40;;;9.98;;
16665;SDS011;8446;50.998;6.250;2022-12-13T12:56:45;17.27;;;9.90;;
16665;SDS011;8446;50.998;6.250;2022-12-13T12:59:16;19.70;;;10.40;;
16665;SDS011;8446;50.998;6.250;2022-12-13T13:01:49;19.17;;;10.02;;
16665;SDS011;8446;50.998;6.250;2022-12-13T13:04:19;19.45;;;9.60;;
16665;SDS011;8446;50.998;6.250;2022-12-13T13:06:48;20.15;;;9.15;;
16665;SDS011;8446;50.998;6.250;2022-12-13T13:09:16;16.85;;;8.98;;
16665;SDS011;8446;50.998;6.250;2022-12-13T13:11:44;18.55;;;9.82;;
16665;SDS011;8446;50.998;6.250;2022-12-13T13:14:27;15.18;;;8.13;;
16665;SDS011;8446;50.998;6.250;2022-12-13T13:16:55;24.38;;;10.55;;
16665;SDS011;8446;50.998;6.250;2022-12-13T13:19:42;22.40;;;10.20;;
16665;SDS011;8446;50.998;6.250;2022-12-13T13:24:57;22.60;;;10.10;;
16665;SDS011;8446;50.998;6.250;2022-12-13T13:27:27;24.23;;;12.05;;
16665;SDS011;8446;50.998;6.250;2022-12-13T13:30:05;15.50;;;9.30;;
16665;SDS011;8446;50.998;6.250;2022-12-13T13:32:32;18.70;;;9.48;;
16665;SDS011;8446;50.998;6.250;2022-12-13T13:37:49;19.48;;;9.95;;
16665;SDS011;8446;50.998;6.250;2022-12-13T13:40:26;24.02;;;10.05;;
16665;SDS011;8446;50.998;6.250;2022-12-13T13:45:53;24.50;;;10.25;;
16665;SDS011;8446;50.998;6.250;2022-12-13T13:48:23;16.55;;;8.50;;
16665;SDS011;8446;50.998;6.250;2022-12-13T13:53:50;17.15;;;9.05;;
16665;SDS011;8446;50.998;6.250;2022-12-13T13:56:34;18.83;;;8.07;;
16665;SDS011;8446;50.998;6.250;2022-12-13T13:59:16;15.48;;;7.28;;
16665;SDS011;8446;50.998;6.250;2022-12-13T14:01:56;15.95;;;8.57;;
16665;SDS011;8446;50.998;6.250;2022-12-13T14:07:14;12.52;;;7.60;;
16665;SDS011;8446;50.998;6.250;2022-12-13T14:09:54;17.48;;;8.07;;
16665;SDS011;8446;50.998;6.250;2022-12-13T14:12:42;13.00;;;7.53;;
16665;SDS011;8446;50.998;6.250;2022-12-13T14:21:00;17.00;;;9.18;;
16665;SDS011;8446;50.998;6.250;2022-12-13T14:23:32;17.85;;;8.40;;
16665;SDS011;8446;50.998;6.250;2022-12-13T14:26:07;18.30;;;8.30;;
16665;SDS011;8446;50.998;6.250;2022-12-13T14:28:41;22.27;;;10.98;;
16665;SDS011;8446;50.998;6.250;2022-12-13T14:31:12;28.35;;;12.60;;
16665;SDS011;8446;50.998;6.250;2022-12-13T14:33:41;29.95;;;12.52;;
16665;SDS011;8446;50.998;6.250;2022-12-13T14:36:12;13.75;;;7.68;;
16665;SDS011;8446;50.998;6.250;2022-12-13T14:38:40;17.45;;;8.18;;
16665;SDS011;8446;50.998;6.250;2022-12-13T14:41:12;15.77;;;8.35;;
16665;SDS011;8446;50.998;6.250;2022-12-13T14:43:40;15.45;;;8.40;;
16665;SDS011;8446;50.998;6.250;2022-12-13T14:46:09;22.75;;;10.48;;
16665;SDS011;8446;50.998;6.250;2022-12-13T14:48:42;19.23;;;8.93;;
16665;SDS011;8446;50.998;6.250;2022-12-13T14:51:18;18.10;;;8.63;;
16665;SDS011;8446;50.998;6.250;2022-12-13T14:53:50;15.38;;;8.95;;
16665;SDS011;8446;50.998;6.250;2022-12-13T14:56:18;16.00;;;8.48;;
16665;SDS011;8446;50.998;6.250;2022-12-13T14:58:51;20.15;;;9.48;;
16665;SDS011;8446;50.998;6.250;2022-12-13T15:01:26;22.50;;;8.98;;
16665;SDS011;8446;50.998;6.250;2022-12-13T15:03:53;22.30;;;9.02;;
16665;SDS011;8446;50.998;6.250;2022-12-13T15:06:22;16.35;;;8.30;;
16665;SDS011;8446;50.998;6.250;2022-12-13T15:08:49;16.45;;;8.50;;
16665;SDS011;8446;50.998;6.250;2022-12-13T15:11:16;13.73;;;8.40;;
16665;SDS011;8446;50.998;6.250;2022-12-13T15:13:43;17.90;;;9.40;;
16665;SDS011;8446;50.998;6.250;2022-12-13T15:16:16;20.10;;;9.15;;
16665;SDS011;8446;50.998;6.250;2022-12-13T15:18:44;27.13;;;10.23;;
16665;SDS011;8446;50.998;6.250;2022-12-13T15:21:19;19.10;;;9.80;;
16665;SDS011;8446;50.998;6.250;2022-12-13T15:23:48;13.90;;;7.65;;
16665;SDS011;8446;50.998;6.250;2022-12-13T15:26:16;20.85;;;9.93;;
16665;SDS011;8446;50.998;6.250;2022-12-13T15:28:45;19.17;;;9.13;;
16665;SDS011;8446;50.998;6.250;2022-12-13T15:31:12;22.13;;;9.63;;
16665;SDS011;8446;50.998;6.250;2022-12-13T15:33:40;19.35;;;8.13;;
16665;SDS011;8446;50.998;6.250;2022-12-13T15:36:08;16.70;;;8.25;;
16665;SDS011;8446;50.998;6.250;2022-12-13T15:38:38;18.65;;;8.80;;
16665;SDS011;8446;50.998;6.250;2022-12-13T15:41:11;20.27;;;9.35;;
16665;SDS011;8446;50.998;6.250;2022-12-13T15:43:41;15.23;;;6.80;;
16665;SDS011;8446;50.998;6.250;2022-12-13T15:46:09;15.80;;;7.97;;
16665;SDS011;8446;50.998;6.250;2022-12-13T15:48:37;14.60;;;8.30;;
16665;SDS011;8446;50.998;6.250;2022-12-13T15:51:05;18.02;;;8.23;;
16665;SDS011;8446;50.998;6.250;2022-12-13T15:53:33;20.42;;;8.13;;
16665;SDS011;8446;50.998;6.250;2022-12-13T15:56:00;23.05;;;8.73;;
16665;SDS011;8446;50.998;6.250;2022-12-13T15:58:30;12.40;;;6.55;;
16665;SDS011;8446;50.998;6.250;2022-12-13T16:00:57;18.70;;;10.07;;
16665;SDS011;8446;50.998;6.250;2022-12-13T16:03:29;18.20;;;8.48;;
16665;SDS011;8446;50.998;6.250;2022-12-13T16:06:01;13.27;;;7.68;;
16665;SDS011;8446;50.998;6.250;2022-12-13T16:08:31;15.82;;;8.55;;
16665;SDS011;8446;50.998;6.250;2022-12-13T16:10:59;13.10;;;6.93;;
16665;SDS011;8446;50.998;6.250;2022-12-13T16:13:28;14.38;;;8.02;;
16665;SDS011;8446;50.998;6.250;2022-12-13T16:15:57;16.65;;;7.78;;
16665;SDS011;8446;50.998;6.250;2022-12-13T16:18:25;19.52;;;6.55;;
16665;SDS011;8446;50.998;6.250;2022-12-13T16:20:55;15.82;;;8.05;;
16665;SDS011;8446;50.998;6.250;2022-12-13T16:23:22;17.63;;;8.25;;
16665;SDS011;8446;50.998;6.250;2022-12-13T16:25:50;12.65;;;7.47;;
16665;SDS011;8446;50.998;6.250;2022-12-13T16:28:17;18.52;;;8.45;;
16665;SDS011;8446;50.998;6.250;2022-12-13T16:30:57;21.92;;;9.75;;
16665;SDS011;8446;50.998;6.250;2022-12-13T16:33:26;17.40;;;8.13;;
16665;SDS011;8446;50.998;6.250;2022-12-13T16:35:53;16.23;;;7.13;;
16665;SDS011;8446;50.998;6.250;2022-12-13T16:38:20;21.13;;;8.13;;
16665;SDS011;8446;50.998;6.250;2022-12-13T16:40:48;11.43;;;7.03;;
16665;SDS011;8446;50.998;6.250;2022-12-13T16:43:17;23.40;;;8.18;;
16665;SDS011;8446;50.998;6.250;2022-12-13T16:45:46;16.83;;;7.95;;
16665;SDS011;8446;50.998;6.250;2022-12-13T16:48:15;14.30;;;6.97;;
16665;SDS011;8446;50.998;6.250;2022-12-13T16:50:43;17.90;;;7.20;;
16665;SDS011;8446;50.998;6.250;2022-12-13T16:53:10;17.25;;;8.93;;
16665;SDS011;8446;50.998;6.250;2022-12-13T16:55:37;13.68;;;8.00;;
16665;SDS011;8446;50.998;6.250;2022-12-13T16:58:05;12.70;;;5.65;;
16665;SDS011;8446;50.998;6.250;2022-12-13T17:00:33;14.15;;;7.25;;
16665;SDS011;8446;50.998;6.250;2022-12-13T17:03:00;10.07;;;6.03;;
16665;SDS011;8446;50.998;6.250;2022-12-13T17:05:29;14.75;;;6.90;;
16665;SDS011;8446;50.998;6.250;2022-12-13T17:07:56;13.23;;;6.53;;
16665;SDS011;8446;50.998;6.250;2022-12-13T17:10:23;15.85;;;6.43;;
16665;SDS011;8446;50.998;6.250;2022-12-13T17:12:50;13.07;;;6.53;;
16665;SDS011;8446;50.998;6.250;2022-12-13T17:15:18;12.85;;;6.70;;
16665;SDS011;8446;50.998;6.250;2022-12-13T17:17:45;11.88;;;6.55;;
16665;SDS011;8446;50.998;6.250;2022-12-13T17:20:13;11.05;;;7.00;;
16665;SDS011;8446;50.998;6.250;2022-12-13T17:22:42;13.43;;;6.30;;
16665;SDS011;8446;50.998;6.250;2022-12-13T17:25:10;13.57;;;6.50;;
16665;SDS011;8446;50.998;6.250;2022-12-13T17:27:38;13.90;;;6.18;;
16665;SDS011;8446;50.998;6.250;2022-12-13T17:30:06;10.73;;;6.15;;
16665;SDS011;8446;50.998;6.250;2022-12-13T17:32:34;12.05;;;6.05;;
16665;SDS011;8446;50.998;6.250;2022-12-13T17:35:01;14.73;;;6.88;;
16665;SDS011;8446;50.998;6.250;2022-12-13T17:37:29;12.30;;;7.05;;
16665;SDS011;8446;50.998;6.250;2022-12-13T17:39:57;13.90;;;6.40;;
16665;SDS011;8446;50.998;6.250;2022-12-13T17:42:25;15.52;;;6.82;;
16665;SDS011;8446;50.998;6.250;2022-12-13T17:44:52;14.43;;;7.13;;
16665;SDS011;8446;50.998;6.250;2022-12-13T17:47:19;16.35;;;8.07;;
16665;SDS011;8446;50.998;6.250;2022-12-13T17:49:46;16.05;;;7.45;;
16665;SDS011;8446;50.998;6.250;2022-12-13T17:52:13;14.90;;;8.38;;
16665;SDS011;8446;50.998;6.250;2022-12-13T17:54:40;18.75;;;8.55;;
16665;SDS011;8446;50.998;6.250;2022-12-13T17:57:08;18.42;;;7.75;;
16665;SDS011;8446;50.998;6.250;2022-12-13T17:59:35;13.48;;;7.05;;
16665;SDS011;8446;50.998;6.250;2022-12-13T18:02:04;13.60;;;7.85;;
16665;SDS011;8446;50.998;6.250;2022-12-13T18:04:32;15.80;;;6.90;;
16665;SDS011;8446;50.998;6.250;2022-12-13T18:06:59;15.32;;;7.47;;
16665;SDS011;8446;50.998;6.250;2022-12-13T18:09:26;17.70;;;8.27;;
16665;SDS011;8446;50.998;6.250;2022-12-13T18:11:53;11.95;;;6.82;;
16665;SDS011;8446;50.998;6.250;2022-12-13T18:14:22;14.90;;;7.55;;
16665;SDS011;8446;50.998;6.250;2022-12-13T18:16:49;14.90;;;7.15;;
16665;SDS011;8446;50.998;6.250;2022-12-13T18:19:16;12.65;;;6.93;;
16665;SDS011;8446;50.998;6.250;2022-12-13T18:21:43;12.13;;;6.80;;
16665;SDS011;8446;50.998;6.250;2022-12-13T18:24:12;13.75;;;7.40;;
16665;SDS011;8446;50.998;6.250;2022-12-13T18:26:39;17.38;;;6.78;;
16665;SDS011;8446;50.998;6.250;2022-12-13T18:29:06;13.75;;;6.25;;
16665;SDS011;8446;50.998;6.250;2022-12-13T18:31:34;15.05;;;7.10;;
16665;SDS011;8446;50.998;6.250;2022-12-13T18:34:01;15.15;;;7.20;;
16665;SDS011;8446;50.998;6.250;2022-12-13T18:36:29;15.68;;;6.18;;
16665;SDS011;8446;50.998;6.250;2022-12-13T18:38:56;13.23;;;6.65;;
16665;SDS011;8446;50.998;6.250;2022-12-13T18:41:23;16.77;;;6.70;;
16665;SDS011;8446;50.998;6.250;2022-12-13T18:43:53;14.43;;;6.82;;
16665;SDS011;8446;50.998;6.250;2022-12-13T18:46:21;12.73;;;7.20;;
16665;SDS011;8446;50.998;6.250;2022-12-13T18:48:49;18.00;;;7.68;;
16665;SDS011;8446;50.998;6.250;2022-12-13T18:51:16;13.02;;;6.60;;
16665;SDS011;8446;50.998;6.250;2022-12-13T18:53:44;14.02;;;7.22;;
16665;SDS011;8446;50.998;6.250;2022-12-13T18:56:12;13.48;;;7.60;;
16665;SDS011;8446;50.998;6.250;2022-12-13T18:58:39;18.85;;;7.43;;
16665;SDS011;8446;50.998;6.250;2022-12-13T19:01:07;12.30;;;6.70;;
16665;SDS011;8446;50.998;6.250;2022-12-13T19:03:35;14.18;;;7.22;;
16665;SDS011;8446;50.998;6.250;2022-12-13T19:06:04;13.80;;;6.47;;
16665;SDS011;8446;50.998;6.250;2022-12-13T19:08:31;13.10;;;6.30;;
16665;SDS011;8446;50.998;6.250;2022-12-13T19:10:59;11.65;;;7.22;;
16665;SDS011;8446;50.998;6.250;2022-12-13T19:13:27;13.38;;;5.50;;
16665;SDS011;8446;50.998;6.250;2022-12-13T19:15:55;14.68;;;7.78;;
16665;SDS011;8446;50.998;6.250;2022-12-13T19:18:22;13.18;;;7.00;;
16665;SDS011;8446;50.998;6.250;2022-12-13T19:20:50;8.07;;;5.90;;
16665;SDS011;8446;50.998;6.250;2022-12-13T19:23:19;11.43;;;6.15;;
16665;SDS011;8446;50.998;6.250;2022-12-13T19:25:46;12.88;;;6.32;;
16665;SDS011;8446;50.998;6.250;2022-12-13T19:28:13;15.48;;;6.90;;
16665;SDS011;8446;50.998;6.250;2022-12-13T19:30:42;10.95;;;6.28;;
16665;SDS011;8446;50.998;6.250;2022-12-13T19:33:09;15.50;;;6.80;;
16665;SDS011;8446;50.998;6.250;2022-12-13T19:35:36;7.28;;;5.57;;
16665;SDS011;8446;50.998;6.250;2022-12-13T19:38:03;14.43;;;7.13;;
16665;SDS011;8446;50.998;6.250;2022-12-13T19:40:33;13.98;;;6.88;;
16665;SDS011;8446;50.998;6.250;2022-12-13T19:43:00;14.77;;;7.07;;
16665;SDS011;8446;50.998;6.250;2022-12-13T19:45:27;13.50;;;6.10;;
16665;SDS011;8446;50.998;6.250;2022-12-13T19:47:55;8.57;;;5.72;;
16665;SDS011;8446;50.998;6.250;2022-12-13T19:50:22;16.90;;;6.97;;
16665;SDS011;8446;50.998;6.250;2022-12-13T19:52:49;15.43;;;7.35;;
16665;SDS011;8446;50.998;6.250;2022-12-13T19:55:16;13.07;;;6.82;;
16665;SDS011;8446;50.998;6.250;2022-12-13T19:57:44;14.75;;;7.20;;
16665;SDS011;8446;50.998;6.250;2022-12-13T20:00:12;13.82;;;7.03;;
16665;SDS011;8446;50.998;6.250;2022-12-13T20:02:39;11.93;;;6.50;;
16665;SDS011;8446;50.998;6.250;2022-12-13T20:05:07;10.15;;;6.63;;
16665;SDS011;8446;50.998;6.250;2022-12-13T20:07:34;15.50;;;7.03;;
16665;SDS011;8446;50.998;6.250;2022-12-13T20:10:01;12.73;;;6.40;;
16665;SDS011;8446;50.998;6.250;2022-12-13T20:12:29;15.73;;;6.57;;
16665;SDS011;8446;50.998;6.250;2022-12-13T20:14:57;10.35;;;5.30;;
16665;SDS011;8446;50.998;6.250;2022-12-13T20:17:29;16.73;;;5.93;;
16665;SDS011;8446;50.998;6.250;2022-12-13T20:19:56;11.65;;;6.18;;
16665;SDS011;8446;50.998;6.250;2022-12-13T20:22:23;13.52;;;4.15;;
16665;SDS011;8446;50.998;6.250;2022-12-13T20:24:50;12.07;;;6.15;;
16665;SDS011;8446;50.998;6.250;2022-12-13T20:27:17;12.15;;;7.03;;
16665;SDS011;8446;50.998;6.250;2022-12-13T20:29:45;12.57;;;6.43;;
16665;SDS011;8446;50.998;6.250;2022-12-13T20:32:14;16.63;;;6.63;;
16665;SDS011;8446;50.998;6.250;2022-12-13T20:34:42;14.30;;;7.30;;
16665;SDS011;8446;50.998;6.250;2022-12-13T20:37:09;14.63;;;7.65;;
16665;SDS011;8446;50.998;6.250;2022-12-13T20:39:36;16.05;;;7.20;;
16665;SDS011;8446;50.998;6.250;2022-12-13T20:42:04;14.73;;;6.75;;
16665;SDS011;8446;50.998;6.250;2022-12-13T20:44:31;13.30;;;6.88;;
16665;SDS011;8446;50.998;6.250;2022-12-13T20:46:58;12.50;;;5.68;;
16665;SDS011;8446;50.998;6.250;2022-12-13T20:49:26;12.10;;;5.82;;
16665;SDS011;8446;50.998;6.250;2022-12-13T20:51:53;9.55;;;6.03;;
16665;SDS011;8446;50.998;6.250;2022-12-13T20:54:20;13.32;;;5.90;;
16665;SDS011;8446;50.998;6.250;2022-12-13T20:56:47;15.68;;;5.93;;
16665;SDS011;8446;50.998;6.250;2022-12-13T20:59:15;9.02;;;5.53;;
16665;SDS011;8446;50.998;6.250;2022-12-13T21:01:42;11.90;;;6.65;;
16665;SDS011;8446;50.998;6.250;2022-12-13T21:04:10;14.18;;;6.35;;
16665;SDS011;8446;50.998;6.250;2022-12-13T21:06:39;15.48;;;7.10;;
16665;SDS011;8446;50.998;6.250;2022-12-13T21:09:07;12.38;;;6.32;;
16665;SDS011;8446;50.998;6.250;2022-12-13T21:11:35;16.52;;;7.97;;
16665;SDS011;8446;50.998;6.250;2022-12-13T21:14:03;11.95;;;6.30;;
16665;SDS011;8446;50.998;6.250;2022-12-13T21:16:31;9.98;;;6.45;;
16665;SDS011;8446;50.998;6.250;2022-12-13T21:18:59;14.90;;;6.78;;
16665;SDS011;8446;50.998;6.250;2022-12-13T21:21:26;12.98;;;5.78;;
16665;SDS011;8446;50.998;6.250;2022-12-13T21:23:55;12.25;;;6.72;;
16665;SDS011;8446;50.998;6.250;2022-12-13T21:26:23;20.75;;;7.55;;
16665;SDS011;8446;50.998;6.250;2022-12-13T21:28:50;15.23;;;7.80;;
16665;SDS011;8446;50.998;6.250;2022-12-13T21:31:18;19.10;;;7.57;;
16665;SDS011;8446;50.998;6.250;2022-12-13T21:33:47;17.73;;;7.70;;
16665;SDS011;8446;50.998;6.250;2022-12-13T21:36:15;18.88;;;7.47;;
16665;SDS011;8446;50.998;6.250;2022-12-13T21:38:43;16.38;;;8.45;;
16665;SDS011;8446;50.998;6.250;2022-12-13T21:41:11;17.67;;;7.97;;
16665;SDS011;8446;50.998;6.250;2022-12-13T21:43:39;22.92;;;7.30;;
16665;SDS011;8446;50.998;6.250;2022-12-13T21:46:06;16.70;;;7.25;;
16665;SDS011;8446;50.998;6.250;2022-12-13T21:48:34;13.00;;;6.88;;
16665;SDS011;8446;50.998;6.250;2022-12-13T21:51:02;14.80;;;7.65;;
16665;SDS011;8446;50.998;6.250;2022-12-13T21:53:29;12.10;;;7.22;;
16665;SDS011;8446;50.998;6.250;2022-12-13T21:55:56;18.02;;;7.70;;
16665;SDS011;8446;50.998;6.250;2022-12-13T21:58:43;14.10;;;6.75;;
16665;SDS011;8446;50.998;6.250;2022-12-13T22:01:27;14.93;;;7.05;;
16665;SDS011;8446;50.998;6.250;2022-12-13T22:04:16;18.08;;;7.95;;
16665;SDS011;8446;50.998;6.250;2022-12-13T22:06:43;10.65;;;6.68;;
16665;SDS011;8446;50.998;6.250;2022-12-13T22:09:10;13.10;;;6.55;;
16665;SDS011;8446;50.998;6.250;2022-12-13T22:11:38;12.00;;;5.78;;
16665;SDS011;8446;50.998;6.250;2022-12-13T22:14:06;17.45;;;7.25;;
16665;SDS011;8446;50.998;6.250;2022-12-13T22:16:33;12.25;;;6.22;;
16665;SDS011;8446;50.998;6.250;2022-12-13T22:19:00;13.05;;;7.57;;
16665;SDS011;8446;50.998;6.250;2022-12-13T22:21:28;11.52;;;6.53;;
16665;SDS011;8446;50.998;6.250;2022-12-13T22:23:55;14.10;;;7.15;;
16665;SDS011;8446;50.998;6.250;2022-12-13T22:26:22;15.27;;;6.90;;
16665;SDS011;8446;50.998;6.250;2022-12-13T22:28:50;11.63;;;6.10;;
16665;SDS011;8446;50.998;6.250;2022-12-13T22:31:18;10.25;;;6.18;;
16665;SDS011;8446;50.998;6.250;2022-12-13T22:33:45;10.90;;;6.50;;
16665;SDS011;8446;50.998;6.250;2022-12-13T22:36:12;18.55;;;7.57;;
16665;SDS011;8446;50.998;6.250;2022-12-13T22:38:40;13.25;;;7.55;;
16665;SDS011;8446;50.998;6.250;2022-12-13T22:41:07;16.65;;;7.57;;
16665;SDS011;8446;50.998;6.250;2022-12-13T22:43:38;15.15;;;7.35;;
16665;SDS011;8446;50.998;6.250;2022-12-13T22:46:06;12.45;;;7.30;;
16665;SDS011;8446;50.998;6.250;2022-12-13T22:48:35;14.60;;;6.40;;
16665;SDS011;8446;50.998;6.250;2022-12-13T22:51:02;13.45;;;7.70;;
16665;SDS011;8446;50.998;6.250;2022-12-13T22:53:29;12.65;;;7.38;;
16665;SDS011;8446;50.998;6.250;2022-12-13T22:56:01;17.33;;;7.75;;
16665;SDS011;8446;50.998;6.250;2022-12-13T22:58:29;11.60;;;6.25;;
16665;SDS011;8446;50.998;6.250;2022-12-13T23:00:56;14.07;;;7.63;;
16665;SDS011;8446;50.998;6.250;2022-12-13T23:03:23;12.20;;;6.00;;
16665;SDS011;8446;50.998;6.250;2022-12-13T23:05:51;11.32;;;5.90;;
16665;SDS011;8446;50.998;6.250;2022-12-13T23:08:19;11.75;;;6.32;;
16665;SDS011;8446;50.998;6.250;2022-12-13T23:10:46;13.70;;;6.55;;
16665;SDS011;8446;50.998;6.250;2022-12-13T23:13:30;11.10;;;6.18;;
16665;SDS011;8446;50.998;6.250;2022-12-13T23:15:57;13.18;;;6.18;;
16665;SDS011;8446;50.998;6.250;2022-12-13T23:18:24;12.15;;;6.57;;
16665;SDS011;8446;50.998;6.250;2022-12-13T23:20:53;17.63;;;6.75;;
16665;SDS011;8446;50.998;6.250;2022-12-13T23:23:20;14.00;;;6.68;;
16665;SDS011;8446;50.998;6.250;2022-12-13T23:25:47;11.65;;;6.97;;
16665;SDS011;8446;50.998;6.250;2022-12-13T23:28:14;11.07;;;5.55;;
16665;SDS011;8446;50.998;6.250;2022-12-13T23:30:41;14.30;;;7.50;;
16665;SDS011;8446;50.998;6.250;2022-12-13T23:33:08;11.43;;;5.00;;
16665;SDS011;8446;50.998;6.250;2022-12-13T23:35:35;14.63;;;6.53;;
16665;SDS011;8446;50.998;6.250;2022-12-13T23:38:04;13.52;;;7.10;;
16665;SDS011;8446;50.998;6.250;2022-12-13T23:40:31;19.67;;;6.90;;
16665;SDS011;8446;50.998;6.250;2022-12-13T23:42:58;12.55;;;5.93;;
16665;SDS011;8446;50.998;6.250;2022-12-13T23:45:25;15.40;;;5.80;;
16665;SDS011;8446;50.998;6.250;2022-12-13T23:47:52;13.50;;;6.53;;
16665;SDS011;8446;50.998;6.250;2022-12-13T23:50:19;12.57;;;5.80;;
16665;SDS011;8446;50.998;6.250;2022-12-13T23:52:46;12.10;;;6.10;;
16665;SDS011;8446;50.998;6.250;2022-12-13T23:55:15;13.88;;;6.50;;
16665;SDS011;8446;50.998;6.250;2022-12-13T23:57:42;18.70;;;5.85;;
